sensor_id;sensor_type;location;lat;lon;timestamp;temperature;humidity
22950;DHT22;11641;51.018;4.474;2022-08-16T00:01:00;22.00;99.90
22950;DHT22;11641;51.018;4.474;2022-08-16T00:03:25;22.00;99.90
22950;DHT22;11641;51.018;4.474;2022-08-16T00:05:52;21.90;99.90
22950;DHT22;11641;51.018;4.474;2022-08-16T00:08:22;21.90;99.90
22950;DHT22;11641;51.018;4.474;2022-08-16T00:10:50;21.90;99.90
22950;DHT22;11641;51.018;4.474;2022-08-16T00:13:16;21.80;99.90
22950;DHT22;11641;51.018;4.474;2022-08-16T00:15:47;21.80;99.90
22950;DHT22;11641;51.018;4.474;2022-08-16T00:18:16;21.70;99.90
22950;DHT22;11641;51.018;4.474;2022-08-16T00:20:45;21.70;99.90
22950;DHT22;11641;51.018;4.474;2022-08-16T00:23:12;21.70;99.90
22950;DHT22;11641;51.018;4.474;2022-08-16T00:25:38;21.60;99.90
22950;DHT22;11641;51.018;4.474;2022-08-16T00:28:06;21.70;99.90
22950;DHT22;11641;51.018;4.474;2022-08-16T00:30:32;21.60;99.90
22950;DHT22;11641;51.018;4.474;2022-08-16T00:33:04;21.40;99.90
22950;DHT22;11641;51.018;4.474;2022-08-16T00:35:38;21.50;99.90
22950;DHT22;11641;51.018;4.474;2022-08-16T00:38:05;21.40;99.90
22950;DHT22;11641;51.018;4.474;2022-08-16T00:40:41;21.40;99.90
22950;DHT22;11641;51.018;4.474;2022-08-16T00:43:13;21.40;99.90
22950;DHT22;11641;51.018;4.474;2022-08-16T00:46:02;21.40;99.90
22950;DHT22;11641;51.018;4.474;2022-08-16T00:48:33;21.50;99.90
22950;DHT22;11641;51.018;4.474;2022-08-16T00:51:00;21.60;99.90
22950;DHT22;11641;51.018;4.474;2022-08-16T00:53:28;21.60;99.90
22950;DHT22;11641;51.018;4.474;2022-08-16T00:55:56;21.60;99.90
22950;DHT22;11641;51.018;4.474;2022-08-16T00:58:26;21.50;99.90
22950;DHT22;11641;51.018;4.474;2022-08-16T01:00:54;21.50;99.90
22950;DHT22;11641;51.018;4.474;2022-08-16T01:03:22;21.50;99.90
22950;DHT22;11641;51.018;4.474;2022-08-16T01:05:49;21.40;99.90
22950;DHT22;11641;51.018;4.474;2022-08-16T01:08:19;21.40;99.90
22950;DHT22;11641;51.018;4.474;2022-08-16T01:10:50;21.50;99.90
22950;DHT22;11641;51.018;4.474;2022-08-16T01:13:21;21.50;99.90
22950;DHT22;11641;51.018;4.474;2022-08-16T01:16:16;21.50;99.90
22950;DHT22;11641;51.018;4.474;2022-08-16T01:18:56;21.50;99.90
22950;DHT22;11641;51.018;4.474;2022-08-16T01:21:55;21.50;99.90
22950;DHT22;11641;51.018;4.474;2022-08-16T01:24:44;21.60;99.90
22950;DHT22;11641;51.018;4.474;2022-08-16T01:30:05;21.40;99.90
22950;DHT22;11641;51.018;4.474;2022-08-16T01:32:35;21.40;99.90
22950;DHT22;11641;51.018;4.474;2022-08-16T01:35:13;21.40;99.90
22950;DHT22;11641;51.018;4.474;2022-08-16T01:37:42;21.40;99.90
22950;DHT22;11641;51.018;4.474;2022-08-16T01:40:15;21.40;99.90
22950;DHT22;11641;51.018;4.474;2022-08-16T01:42:46;21.40;99.90
22950;DHT22;11641;51.018;4.474;2022-08-16T01:45:13;21.40;99.90
22950;DHT22;11641;51.018;4.474;2022-08-16T01:47:41;21.30;99.90
22950;DHT22;11641;51.018;4.474;2022-08-16T01:50:12;21.30;99.90
22950;DHT22;11641;51.018;4.474;2022-08-16T01:52:41;21.30;99.90
22950;DHT22;11641;51.018;4.474;2022-08-16T01:55:07;21.30;99.90
22950;DHT22;11641;51.018;4.474;2022-08-16T01:57:32;21.30;99.90
22950;DHT22;11641;51.018;4.474;2022-08-16T02:00:04;21.20;99.90
22950;DHT22;11641;51.018;4.474;2022-08-16T02:02:30;21.20;99.90
22950;DHT22;11641;51.018;4.474;2022-08-16T02:04:56;21.20;99.90
22950;DHT22;11641;51.018;4.474;2022-08-16T02:07:24;21.10;99.90
22950;DHT22;11641;51.018;4.474;2022-08-16T02:09:50;21.10;99.90
22950;DHT22;11641;51.018;4.474;2022-08-16T02:12:17;21.10;99.90
22950;DHT22;11641;51.018;4.474;2022-08-16T02:14:43;21.10;99.90
22950;DHT22;11641;51.018;4.474;2022-08-16T02:17:11;21.00;99.90
22950;DHT22;11641;51.018;4.474;2022-08-16T02:19:40;21.00;99.90
22950;DHT22;11641;51.018;4.474;2022-08-16T02:22:12;20.90;99.90
22950;DHT22;11641;51.018;4.474;2022-08-16T02:24:42;21.00;99.90
22950;DHT22;11641;51.018;4.474;2022-08-16T02:27:10;20.90;99.90
22950;DHT22;11641;51.018;4.474;2022-08-16T02:29:37;20.90;99.90
22950;DHT22;11641;51.018;4.474;2022-08-16T02:32:05;20.90;99.90
22950;DHT22;11641;51.018;4.474;2022-08-16T02:34:31;20.80;99.90
22950;DHT22;11641;51.018;4.474;2022-08-16T02:37:00;20.80;99.90
22950;DHT22;11641;51.018;4.474;2022-08-16T02:39:27;20.80;99.90
22950;DHT22;11641;51.018;4.474;2022-08-16T02:41:56;20.80;99.90
22950;DHT22;11641;51.018;4.474;2022-08-16T02:44:23;20.80;99.90
22950;DHT22;11641;51.018;4.474;2022-08-16T02:46:49;20.70;99.90
22950;DHT22;11641;51.018;4.474;2022-08-16T02:49:15;20.70;99.90
22950;DHT22;11641;51.018;4.474;2022-08-16T02:51:42;20.80;99.90
22950;DHT22;11641;51.018;4.474;2022-08-16T02:54:10;20.70;99.90
22950;DHT22;11641;51.018;4.474;2022-08-16T02:56:40;20.70;99.90
22950;DHT22;11641;51.018;4.474;2022-08-16T02:59:08;20.70;99.90
22950;DHT22;11641;51.018;4.474;2022-08-16T03:01:35;20.70;99.90
22950;DHT22;11641;51.018;4.474;2022-08-16T03:04:06;20.60;99.90
22950;DHT22;11641;51.018;4.474;2022-08-16T03:06:34;20.60;99.90
22950;DHT22;11641;51.018;4.474;2022-08-16T03:09:03;20.60;99.90
22950;DHT22;11641;51.018;4.474;2022-08-16T03:11:30;20.60;99.90
22950;DHT22;11641;51.018;4.474;2022-08-16T03:13:57;20.60;99.90
22950;DHT22;11641;51.018;4.474;2022-08-16T03:16:26;20.60;99.90
22950;DHT22;11641;51.018;4.474;2022-08-16T03:18:53;20.60;99.90
22950;DHT22;11641;51.018;4.474;2022-08-16T03:21:22;20.50;99.90
22950;DHT22;11641;51.018;4.474;2022-08-16T03:23:48;20.50;99.90
22950;DHT22;11641;51.018;4.474;2022-08-16T03:26:14;20.50;99.90
22950;DHT22;11641;51.018;4.474;2022-08-16T03:28:41;20.50;99.90
22950;DHT22;11641;51.018;4.474;2022-08-16T03:31:12;20.40;99.90
22950;DHT22;11641;51.018;4.474;2022-08-16T03:33:46;20.50;99.90
22950;DHT22;11641;51.018;4.474;2022-08-16T03:36:16;20.50;99.90
22950;DHT22;11641;51.018;4.474;2022-08-16T03:38:45;20.40;99.90
22950;DHT22;11641;51.018;4.474;2022-08-16T03:41:11;20.40;99.90
22950;DHT22;11641;51.018;4.474;2022-08-16T03:43:41;20.30;99.90
22950;DHT22;11641;51.018;4.474;2022-08-16T03:46:23;20.30;99.90
22950;DHT22;11641;51.018;4.474;2022-08-16T03:48:50;20.30;99.90
22950;DHT22;11641;51.018;4.474;2022-08-16T03:51:18;20.40;99.90
22950;DHT22;11641;51.018;4.474;2022-08-16T03:53:49;20.40;99.90
22950;DHT22;11641;51.018;4.474;2022-08-16T03:56:17;20.40;99.90
22950;DHT22;11641;51.018;4.474;2022-08-16T03:58:44;20.30;99.90
22950;DHT22;11641;51.018;4.474;2022-08-16T04:01:13;20.30;99.90
22950;DHT22;11641;51.018;4.474;2022-08-16T04:03:39;20.20;99.90
22950;DHT22;11641;51.018;4.474;2022-08-16T04:06:09;20.20;99.90
22950;DHT22;11641;51.018;4.474;2022-08-16T04:08:39;20.10;99.90
22950;DHT22;11641;51.018;4.474;2022-08-16T04:11:07;20.10;99.90
22950;DHT22;11641;51.018;4.474;2022-08-16T04:13:33;20.10;99.90
22950;DHT22;11641;51.018;4.474;2022-08-16T04:16:00;20.00;99.90
22950;DHT22;11641;51.018;4.474;2022-08-16T04:18:40;20.10;99.90
22950;DHT22;11641;51.018;4.474;2022-08-16T04:21:08;20.20;99.90
22950;DHT22;11641;51.018;4.474;2022-08-16T04:23:42;20.20;99.90
22950;DHT22;11641;51.018;4.474;2022-08-16T04:26:08;20.20;99.90
22950;DHT22;11641;51.018;4.474;2022-08-16T04:28:34;20.10;99.90
22950;DHT22;11641;51.018;4.474;2022-08-16T04:31:02;20.10;99.90
22950;DHT22;11641;51.018;4.474;2022-08-16T04:33:28;20.20;99.90
22950;DHT22;11641;51.018;4.474;2022-08-16T04:35:57;20.10;99.90
22950;DHT22;11641;51.018;4.474;2022-08-16T04:38:23;20.20;99.90
22950;DHT22;11641;51.018;4.474;2022-08-16T04:40:50;20.10;99.90
22950;DHT22;11641;51.018;4.474;2022-08-16T04:43:16;20.10;99.90
22950;DHT22;11641;51.018;4.474;2022-08-16T04:45:45;20.00;99.90
22950;DHT22;11641;51.018;4.474;2022-08-16T04:48:13;20.10;99.90
22950;DHT22;11641;51.018;4.474;2022-08-16T04:50:40;20.10;99.90
22950;DHT22;11641;51.018;4.474;2022-08-16T04:53:06;20.20;99.90
22950;DHT22;11641;51.018;4.474;2022-08-16T04:55:33;20.20;99.90
22950;DHT22;11641;51.018;4.474;2022-08-16T04:58:01;20.20;99.90
22950;DHT22;11641;51.018;4.474;2022-08-16T05:00:31;20.30;99.90
22950;DHT22;11641;51.018;4.474;2022-08-16T05:03:08;20.40;99.90
22950;DHT22;11641;51.018;4.474;2022-08-16T05:05:38;20.50;99.90
22950;DHT22;11641;51.018;4.474;2022-08-16T05:08:05;20.50;99.90
22950;DHT22;11641;51.018;4.474;2022-08-16T05:10:32;20.60;99.90
22950;DHT22;11641;51.018;4.474;2022-08-16T05:13:20;20.60;99.90
22950;DHT22;11641;51.018;4.474;2022-08-16T05:15:50;20.80;99.90
22950;DHT22;11641;51.018;4.474;2022-08-16T05:18:16;20.90;99.90
22950;DHT22;11641;51.018;4.474;2022-08-16T05:20:43;21.00;99.90
22950;DHT22;11641;51.018;4.474;2022-08-16T05:23:08;21.10;99.90
22950;DHT22;11641;51.018;4.474;2022-08-16T05:25:36;21.10;99.90
22950;DHT22;11641;51.018;4.474;2022-08-16T05:28:03;21.10;99.90
22950;DHT22;11641;51.018;4.474;2022-08-16T05:30:37;21.10;99.90
22950;DHT22;11641;51.018;4.474;2022-08-16T05:33:04;21.10;99.90
22950;DHT22;11641;51.018;4.474;2022-08-16T05:35:35;21.20;99.90
22950;DHT22;11641;51.018;4.474;2022-08-16T05:38:02;21.10;99.90
22950;DHT22;11641;51.018;4.474;2022-08-16T05:40:31;21.10;99.90
22950;DHT22;11641;51.018;4.474;2022-08-16T05:42:56;21.20;99.90
22950;DHT22;11641;51.018;4.474;2022-08-16T05:45:23;21.20;99.90
22950;DHT22;11641;51.018;4.474;2022-08-16T05:47:51;21.10;99.90
22950;DHT22;11641;51.018;4.474;2022-08-16T05:50:20;21.10;99.90
22950;DHT22;11641;51.018;4.474;2022-08-16T05:52:46;21.10;99.90
22950;DHT22;11641;51.018;4.474;2022-08-16T05:55:12;21.20;99.90
22950;DHT22;11641;51.018;4.474;2022-08-16T05:57:38;21.10;99.90
22950;DHT22;11641;51.018;4.474;2022-08-16T06:00:06;21.20;99.90
22950;DHT22;11641;51.018;4.474;2022-08-16T06:02:34;21.20;99.90
22950;DHT22;11641;51.018;4.474;2022-08-16T06:05:01;21.20;99.90
22950;DHT22;11641;51.018;4.474;2022-08-16T06:07:30;21.00;99.90
22950;DHT22;11641;51.018;4.474;2022-08-16T06:09:55;21.10;99.90
22950;DHT22;11641;51.018;4.474;2022-08-16T06:12:24;21.10;99.90
22950;DHT22;11641;51.018;4.474;2022-08-16T06:14:52;21.00;99.90
22950;DHT22;11641;51.018;4.474;2022-08-16T06:17:23;21.20;99.90
22950;DHT22;11641;51.018;4.474;2022-08-16T06:19:49;21.40;99.90
22950;DHT22;11641;51.018;4.474;2022-08-16T06:22:19;21.40;99.90
22950;DHT22;11641;51.018;4.474;2022-08-16T06:24:48;21.40;99.90
22950;DHT22;11641;51.018;4.474;2022-08-16T06:27:17;21.60;99.90
22950;DHT22;11641;51.018;4.474;2022-08-16T06:29:44;21.70;99.90
22950;DHT22;11641;51.018;4.474;2022-08-16T06:32:15;21.80;99.90
22950;DHT22;11641;51.018;4.474;2022-08-16T06:34:41;21.90;99.90
22950;DHT22;11641;51.018;4.474;2022-08-16T06:37:07;21.90;99.90
22950;DHT22;11641;51.018;4.474;2022-08-16T06:39:33;22.00;99.90
22950;DHT22;11641;51.018;4.474;2022-08-16T06:42:00;22.10;99.90
22950;DHT22;11641;51.018;4.474;2022-08-16T06:44:30;22.20;99.90
22950;DHT22;11641;51.018;4.474;2022-08-16T06:46:57;22.20;99.90
22950;DHT22;11641;51.018;4.474;2022-08-16T06:49:25;22.40;99.90
22950;DHT22;11641;51.018;4.474;2022-08-16T06:51:51;22.40;99.90
22950;DHT22;11641;51.018;4.474;2022-08-16T06:54:17;22.50;99.90
22950;DHT22;11641;51.018;4.474;2022-08-16T06:56:43;22.50;99.90
22950;DHT22;11641;51.018;4.474;2022-08-16T06:59:12;22.50;99.90
22950;DHT22;11641;51.018;4.474;2022-08-16T07:01:38;22.50;99.90
22950;DHT22;11641;51.018;4.474;2022-08-16T07:04:05;22.40;99.90
22950;DHT22;11641;51.018;4.474;2022-08-16T07:06:31;22.50;99.90
22950;DHT22;11641;51.018;4.474;2022-08-16T07:08:57;22.50;99.90
22950;DHT22;11641;51.018;4.474;2022-08-16T07:11:25;22.60;99.90
22950;DHT22;11641;51.018;4.474;2022-08-16T07:13:51;22.70;99.90
22950;DHT22;11641;51.018;4.474;2022-08-16T07:16:17;22.70;99.90
22950;DHT22;11641;51.018;4.474;2022-08-16T07:18:46;22.70;99.90
22950;DHT22;11641;51.018;4.474;2022-08-16T07:21:13;22.80;99.90
22950;DHT22;11641;51.018;4.474;2022-08-16T07:23:40;22.90;99.90
22950;DHT22;11641;51.018;4.474;2022-08-16T07:26:10;23.00;99.90
22950;DHT22;11641;51.018;4.474;2022-08-16T07:28:37;23.30;99.90
22950;DHT22;11641;51.018;4.474;2022-08-16T07:31:05;23.50;99.90
22950;DHT22;11641;51.018;4.474;2022-08-16T07:33:51;23.60;99.90
22950;DHT22;11641;51.018;4.474;2022-08-16T07:36:17;23.90;99.90
22950;DHT22;11641;51.018;4.474;2022-08-16T07:38:45;23.90;99.90
22950;DHT22;11641;51.018;4.474;2022-08-16T07:41:11;24.00;99.90
22950;DHT22;11641;51.018;4.474;2022-08-16T07:43:37;23.90;99.90
22950;DHT22;11641;51.018;4.474;2022-08-16T07:46:03;23.90;99.90
22950;DHT22;11641;51.018;4.474;2022-08-16T07:48:30;24.20;99.90
22950;DHT22;11641;51.018;4.474;2022-08-16T07:50:57;24.30;99.90
22950;DHT22;11641;51.018;4.474;2022-08-16T07:53:26;24.60;99.90
22950;DHT22;11641;51.018;4.474;2022-08-16T07:55:53;24.80;99.90
22950;DHT22;11641;51.018;4.474;2022-08-16T07:58:19;25.00;99.90
22950;DHT22;11641;51.018;4.474;2022-08-16T08:00:45;25.20;99.90
22950;DHT22;11641;51.018;4.474;2022-08-16T08:03:12;25.10;99.90
22950;DHT22;11641;51.018;4.474;2022-08-16T08:05:42;25.10;99.90
22950;DHT22;11641;51.018;4.474;2022-08-16T08:08:10;25.30;99.90
22950;DHT22;11641;51.018;4.474;2022-08-16T08:10:38;25.70;99.90
22950;DHT22;11641;51.018;4.474;2022-08-16T08:13:07;26.00;99.90
22950;DHT22;11641;51.018;4.474;2022-08-16T08:15:33;25.70;99.90
22950;DHT22;11641;51.018;4.474;2022-08-16T08:18:02;26.00;99.90
22950;DHT22;11641;51.018;4.474;2022-08-16T08:20:28;26.10;99.90
22950;DHT22;11641;51.018;4.474;2022-08-16T08:22:56;26.20;99.90
22950;DHT22;11641;51.018;4.474;2022-08-16T08:25:23;26.50;99.90
22950;DHT22;11641;51.018;4.474;2022-08-16T08:27:54;26.40;99.90
22950;DHT22;11641;51.018;4.474;2022-08-16T08:30:20;26.80;99.90
22950;DHT22;11641;51.018;4.474;2022-08-16T08:32:46;26.90;99.90
22950;DHT22;11641;51.018;4.474;2022-08-16T08:35:12;27.00;99.90
22950;DHT22;11641;51.018;4.474;2022-08-16T08:37:41;26.90;99.90
22950;DHT22;11641;51.018;4.474;2022-08-16T08:40:10;27.30;99.90
22950;DHT22;11641;51.018;4.474;2022-08-16T08:42:39;27.50;99.90
22950;DHT22;11641;51.018;4.474;2022-08-16T08:45:09;27.70;99.90
22950;DHT22;11641;51.018;4.474;2022-08-16T08:48:10;27.80;99.90
22950;DHT22;11641;51.018;4.474;2022-08-16T08:50:35;27.90;99.30
22950;DHT22;11641;51.018;4.474;2022-08-16T08:53:06;28.20;97.30
22950;DHT22;11641;51.018;4.474;2022-08-16T08:55:32;28.40;96.40
22950;DHT22;11641;51.018;4.474;2022-08-16T08:57:59;28.30;96.50
22950;DHT22;11641;51.018;4.474;2022-08-16T09:00:26;28.70;96.40
22950;DHT22;11641;51.018;4.474;2022-08-16T09:02:56;28.70;95.00
22950;DHT22;11641;51.018;4.474;2022-08-16T09:05:23;28.50;94.10
22950;DHT22;11641;51.018;4.474;2022-08-16T09:07:58;28.50;94.20
22950;DHT22;11641;51.018;4.474;2022-08-16T09:10:23;29.10;92.20
22950;DHT22;11641;51.018;4.474;2022-08-16T09:13:00;29.40;91.50
22950;DHT22;11641;51.018;4.474;2022-08-16T09:15:26;29.50;91.20
22950;DHT22;11641;51.018;4.474;2022-08-16T09:18:08;29.40;90.50
22950;DHT22;11641;51.018;4.474;2022-08-16T09:20:34;29.40;90.10
22950;DHT22;11641;51.018;4.474;2022-08-16T09:23:00;29.30;90.40
22950;DHT22;11641;51.018;4.474;2022-08-16T09:25:32;29.30;90.50
22950;DHT22;11641;51.018;4.474;2022-08-16T09:27:58;29.20;90.10
22950;DHT22;11641;51.018;4.474;2022-08-16T09:30:30;29.30;90.50
22950;DHT22;11641;51.018;4.474;2022-08-16T09:32:56;29.40;91.40
22950;DHT22;11641;51.018;4.474;2022-08-16T09:35:23;29.40;91.10
22950;DHT22;11641;51.018;4.474;2022-08-16T09:37:49;29.50;90.40
22950;DHT22;11641;51.018;4.474;2022-08-16T09:40:15;29.60;90.40
22950;DHT22;11641;51.018;4.474;2022-08-16T09:42:42;29.80;89.80
22950;DHT22;11641;51.018;4.474;2022-08-16T09:45:11;29.90;89.20
22950;DHT22;11641;51.018;4.474;2022-08-16T09:47:39;30.20;88.10
22950;DHT22;11641;51.018;4.474;2022-08-16T09:50:10;30.20;87.20
22950;DHT22;11641;51.018;4.474;2022-08-16T09:52:36;30.70;86.80
22950;DHT22;11641;51.018;4.474;2022-08-16T09:55:09;30.60;85.20
22950;DHT22;11641;51.018;4.474;2022-08-16T09:57:36;30.50;85.20
22950;DHT22;11641;51.018;4.474;2022-08-16T10:00:05;30.90;84.40
22950;DHT22;11641;51.018;4.474;2022-08-16T10:02:32;31.80;81.00
22950;DHT22;11641;51.018;4.474;2022-08-16T10:05:08;32.90;77.00
22950;DHT22;11641;51.018;4.474;2022-08-16T10:07:44;34.60;71.40
22950;DHT22;11641;51.018;4.474;2022-08-16T10:10:13;34.70;68.40
22950;DHT22;11641;51.018;4.474;2022-08-16T10:12:39;34.90;66.50
22950;DHT22;11641;51.018;4.474;2022-08-16T10:15:24;35.30;64.40
22950;DHT22;11641;51.018;4.474;2022-08-16T10:17:54;36.70;61.20
22950;DHT22;11641;51.018;4.474;2022-08-16T10:20:20;36.50;59.20
22950;DHT22;11641;51.018;4.474;2022-08-16T10:22:54;36.30;58.10
22950;DHT22;11641;51.018;4.474;2022-08-16T10:25:23;36.20;59.00
22950;DHT22;11641;51.018;4.474;2022-08-16T10:27:49;35.50;61.80
22950;DHT22;11641;51.018;4.474;2022-08-16T10:30:16;35.20;63.80
22950;DHT22;11641;51.018;4.474;2022-08-16T10:32:43;34.90;62.80
22950;DHT22;11641;51.018;4.474;2022-08-16T10:35:13;34.20;65.00
22950;DHT22;11641;51.018;4.474;2022-08-16T10:37:39;33.60;65.80
22950;DHT22;11641;51.018;4.474;2022-08-16T10:40:08;33.90;67.40
22950;DHT22;11641;51.018;4.474;2022-08-16T10:42:34;34.30;66.50
22950;DHT22;11641;51.018;4.474;2022-08-16T10:45:00;34.00;65.80
22950;DHT22;11641;51.018;4.474;2022-08-16T10:47:27;33.60;67.20
22950;DHT22;11641;51.018;4.474;2022-08-16T10:49:59;32.90;68.60
22950;DHT22;11641;51.018;4.474;2022-08-16T10:52:25;32.50;70.50
22950;DHT22;11641;51.018;4.474;2022-08-16T10:54:52;32.10;71.50
22950;DHT22;11641;51.018;4.474;2022-08-16T10:57:39;31.60;71.30
22950;DHT22;11641;51.018;4.474;2022-08-16T11:00:09;31.60;72.30
22950;DHT22;11641;51.018;4.474;2022-08-16T11:02:41;31.90;71.70
22950;DHT22;11641;51.018;4.474;2022-08-16T11:05:10;32.40;70.30
22950;DHT22;11641;51.018;4.474;2022-08-16T11:07:41;32.80;69.30
22950;DHT22;11641;51.018;4.474;2022-08-16T11:10:10;32.60;70.20
22950;DHT22;11641;51.018;4.474;2022-08-16T11:12:37;33.00;70.50
22950;DHT22;11641;51.018;4.474;2022-08-16T11:15:04;33.70;67.90
22950;DHT22;11641;51.018;4.474;2022-08-16T11:17:33;33.80;68.00
22950;DHT22;11641;51.018;4.474;2022-08-16T11:19:59;33.50;67.20
22950;DHT22;11641;51.018;4.474;2022-08-16T11:22:25;32.90;68.60
22950;DHT22;11641;51.018;4.474;2022-08-16T11:24:52;32.30;70.80
22950;DHT22;11641;51.018;4.474;2022-08-16T11:27:22;32.00;71.10
22950;DHT22;11641;51.018;4.474;2022-08-16T11:29:51;31.90;71.70
22950;DHT22;11641;51.018;4.474;2022-08-16T11:32:20;31.40;72.20
22950;DHT22;11641;51.018;4.474;2022-08-16T11:34:46;31.20;73.50
22950;DHT22;11641;51.018;4.474;2022-08-16T11:37:12;31.10;74.80
22950;DHT22;11641;51.018;4.474;2022-08-16T11:39:39;31.20;74.70
22950;DHT22;11641;51.018;4.474;2022-08-16T11:42:05;31.40;74.00
22950;DHT22;11641;51.018;4.474;2022-08-16T11:44:31;31.30;73.70
22950;DHT22;11641;51.018;4.474;2022-08-16T11:46:57;32.10;71.80
22950;DHT22;11641;51.018;4.474;2022-08-16T11:49:23;33.20;69.40
22950;DHT22;11641;51.018;4.474;2022-08-16T11:51:49;33.90;67.40
22950;DHT22;11641;51.018;4.474;2022-08-16T11:54:16;36.40;62.60
22950;DHT22;11641;51.018;4.474;2022-08-16T11:56:45;37.80;58.20
22950;DHT22;11641;51.018;4.474;2022-08-16T11:59:11;38.60;55.40
22950;DHT22;11641;51.018;4.474;2022-08-16T12:01:37;38.40;54.70
22950;DHT22;11641;51.018;4.474;2022-08-16T12:04:04;38.90;55.40
22950;DHT22;11641;51.018;4.474;2022-08-16T12:06:30;39.60;52.20
22950;DHT22;11641;51.018;4.474;2022-08-16T12:08:59;40.50;51.00
22950;DHT22;11641;51.018;4.474;2022-08-16T12:11:26;40.60;49.90
22950;DHT22;11641;51.018;4.474;2022-08-16T12:13:52;41.00;47.50
22950;DHT22;11641;51.018;4.474;2022-08-16T12:16:21;40.30;48.30
22950;DHT22;11641;51.018;4.474;2022-08-16T12:18:50;40.40;48.60
22950;DHT22;11641;51.018;4.474;2022-08-16T12:21:16;39.40;49.60
22950;DHT22;11641;51.018;4.474;2022-08-16T12:23:42;39.50;50.40
22950;DHT22;11641;51.018;4.474;2022-08-16T12:26:08;41.40;47.80
22950;DHT22;11641;51.018;4.474;2022-08-16T12:28:37;42.80;46.20
22950;DHT22;11641;51.018;4.474;2022-08-16T12:31:05;43.30;45.20
22950;DHT22;11641;51.018;4.474;2022-08-16T12:33:32;42.90;45.40
22950;DHT22;11641;51.018;4.474;2022-08-16T12:36:02;43.30;44.80
22950;DHT22;11641;51.018;4.474;2022-08-16T12:38:30;44.20;43.90
22950;DHT22;11641;51.018;4.474;2022-08-16T12:40:55;43.30;44.40
22950;DHT22;11641;51.018;4.474;2022-08-16T12:43:23;43.30;44.50
22950;DHT22;11641;51.018;4.474;2022-08-16T12:45:51;42.00;45.30
22950;DHT22;11641;51.018;4.474;2022-08-16T12:48:23;40.80;47.00
22950;DHT22;11641;51.018;4.474;2022-08-16T12:51:10;39.10;48.20
22950;DHT22;11641;51.018;4.474;2022-08-16T12:53:37;37.70;50.70
22950;DHT22;11641;51.018;4.474;2022-08-16T12:56:04;38.00;51.30
22950;DHT22;11641;51.018;4.474;2022-08-16T12:58:30;37.70;49.80
22950;DHT22;11641;51.018;4.474;2022-08-16T13:00:57;38.20;50.40
22950;DHT22;11641;51.018;4.474;2022-08-16T13:03:25;38.60;49.50
22950;DHT22;11641;51.018;4.474;2022-08-16T13:05:53;40.10;47.50
22950;DHT22;11641;51.018;4.474;2022-08-16T13:08:22;40.20;46.60
22950;DHT22;11641;51.018;4.474;2022-08-16T13:10:51;41.90;44.90
22950;DHT22;11641;51.018;4.474;2022-08-16T13:13:21;43.20;44.50
22950;DHT22;11641;51.018;4.474;2022-08-16T13:15:55;43.60;42.80
22950;DHT22;11641;51.018;4.474;2022-08-16T13:18:23;44.50;41.80
22950;DHT22;11641;51.018;4.474;2022-08-16T13:20:49;44.70;41.60
22950;DHT22;11641;51.018;4.474;2022-08-16T13:23:16;45.90;40.70
22950;DHT22;11641;51.018;4.474;2022-08-16T13:25:45;45.40;40.00
22950;DHT22;11641;51.018;4.474;2022-08-16T13:28:12;44.70;40.40
22950;DHT22;11641;51.018;4.474;2022-08-16T13:30:42;45.40;39.60
22950;DHT22;11641;51.018;4.474;2022-08-16T13:33:18;44.80;40.00
22950;DHT22;11641;51.018;4.474;2022-08-16T13:35:48;43.20;42.30
22950;DHT22;11641;51.018;4.474;2022-08-16T13:38:15;42.30;43.10
22950;DHT22;11641;51.018;4.474;2022-08-16T13:40:53;43.10;41.20
22950;DHT22;11641;51.018;4.474;2022-08-16T13:43:25;42.20;41.90
22950;DHT22;11641;51.018;4.474;2022-08-16T13:45:57;39.80;44.70
22950;DHT22;11641;51.018;4.474;2022-08-16T13:48:26;37.80;48.20
22950;DHT22;11641;51.018;4.474;2022-08-16T13:50:56;37.60;48.00
22950;DHT22;11641;51.018;4.474;2022-08-16T13:53:24;37.10;48.90
22950;DHT22;11641;51.018;4.474;2022-08-16T13:55:55;35.90;50.60
22950;DHT22;11641;51.018;4.474;2022-08-16T13:58:22;36.00;50.80
22950;DHT22;11641;51.018;4.474;2022-08-16T14:00:49;36.00;51.20
22950;DHT22;11641;51.018;4.474;2022-08-16T14:03:17;35.30;52.50
22950;DHT22;11641;51.018;4.474;2022-08-16T14:05:43;34.70;52.90
22950;DHT22;11641;51.018;4.474;2022-08-16T14:08:10;34.30;53.20
22950;DHT22;11641;51.018;4.474;2022-08-16T14:10:36;34.20;53.50
22950;DHT22;11641;51.018;4.474;2022-08-16T14:13:02;33.90;54.30
22950;DHT22;11641;51.018;4.474;2022-08-16T14:15:28;34.10;55.20
22950;DHT22;11641;51.018;4.474;2022-08-16T14:17:54;34.20;55.60
22950;DHT22;11641;51.018;4.474;2022-08-16T14:20:19;33.80;55.50
22950;DHT22;11641;51.018;4.474;2022-08-16T14:22:46;33.60;55.40
22950;DHT22;11641;51.018;4.474;2022-08-16T14:25:16;33.80;56.20
22950;DHT22;11641;51.018;4.474;2022-08-16T14:27:43;33.90;55.00
22950;DHT22;11641;51.018;4.474;2022-08-16T14:30:12;34.00;55.80
22950;DHT22;11641;51.018;4.474;2022-08-16T14:32:40;34.40;56.50
22950;DHT22;11641;51.018;4.474;2022-08-16T14:35:15;34.20;55.20
22950;DHT22;11641;51.018;4.474;2022-08-16T14:37:43;34.90;54.90
22950;DHT22;11641;51.018;4.474;2022-08-16T14:40:11;35.20;53.90
22950;DHT22;11641;51.018;4.474;2022-08-16T14:42:37;36.00;52.60
22950;DHT22;11641;51.018;4.474;2022-08-16T14:45:06;36.20;53.00
22950;DHT22;11641;51.018;4.474;2022-08-16T14:47:32;36.30;52.30
22950;DHT22;11641;51.018;4.474;2022-08-16T14:50:02;35.60;53.10
22950;DHT22;11641;51.018;4.474;2022-08-16T14:52:29;36.00;52.20
22950;DHT22;11641;51.018;4.474;2022-08-16T14:55:05;36.00;52.60
22950;DHT22;11641;51.018;4.474;2022-08-16T14:57:32;35.90;53.60
22950;DHT22;11641;51.018;4.474;2022-08-16T15:00:05;36.20;52.10
22950;DHT22;11641;51.018;4.474;2022-08-16T15:02:34;37.50;50.50
22950;DHT22;11641;51.018;4.474;2022-08-16T15:05:01;39.20;48.80
22950;DHT22;11641;51.018;4.474;2022-08-16T15:07:28;39.20;48.30
22950;DHT22;11641;51.018;4.474;2022-08-16T15:09:55;39.00;48.80
22950;DHT22;11641;51.018;4.474;2022-08-16T15:12:23;39.10;49.10
22950;DHT22;11641;51.018;4.474;2022-08-16T15:14:50;39.30;49.00
22950;DHT22;11641;51.018;4.474;2022-08-16T15:17:20;40.30;47.80
22950;DHT22;11641;51.018;4.474;2022-08-16T15:19:46;41.90;46.10
22950;DHT22;11641;51.018;4.474;2022-08-16T15:22:29;43.20;43.80
22950;DHT22;11641;51.018;4.474;2022-08-16T15:25:01;42.60;43.60
22950;DHT22;11641;51.018;4.474;2022-08-16T15:27:30;43.40;42.80
22950;DHT22;11641;51.018;4.474;2022-08-16T15:29:59;43.80;42.20
22950;DHT22;11641;51.018;4.474;2022-08-16T15:32:27;43.90;42.30
22950;DHT22;11641;51.018;4.474;2022-08-16T15:34:54;43.30;42.30
22950;DHT22;11641;51.018;4.474;2022-08-16T15:37:21;44.30;41.50
22950;DHT22;11641;51.018;4.474;2022-08-16T15:39:51;45.00;41.70
22950;DHT22;11641;51.018;4.474;2022-08-16T15:42:17;44.80;41.10